Time;durP1;ratioP1;P1;durP2;ratioP2;P2;SDS_P1;SDS_P2;PMS_P1;PMS_P2;Temp;Humidity;BMP_temperature;BMP_pressure;BME280_temperature;BME280_humidity;BME280_pressure;Samples;Min_cycle;Max_cycle;Signal;HPM_P1;HPM_P2
2023/10/09 00:01:01;;;;;;;50.90;21.95;;;;;;;14.95;100.00;101761.00;4934201;29;20035;-93
2023/10/09 00:03:27;;;;;;;40.47;20.67;;;;;;;15.07;100.00;101759.13;4952911;29;20047;-95
2023/10/09 00:05:55;;;;;;;48.03;20.75;;;;;;;14.99;100.00;101745.09;4951299;28;20027;-95
2023/10/09 00:08:33;;;;;;;50.70;21.83;;;;;;;14.91;100.00;101742.97;4955440;29;20032;-94
2023/10/09 00:11:13;;;;;;;41.90;20.27;;;;;;;14.98;100.00;101746.09;4934650;29;20110;-94
2023/10/09 00:13:49;;;;;;;47.45;20.45;;;;;;;14.98;100.00;101737.81;4947683;29;20118;-95
2023/10/09 00:16:43;;;;;;;47.50;19.67;;;;;;;14.64;100.00;101735.09;4939692;29;20067;-94
2023/10/09 00:21:45;;;;;;;43.67;19.92;;;;;;;14.60;100.00;101728.09;4951109;29;20041;-95
2023/10/09 00:24:16;;;;;;;42.67;20.48;;;;;;;14.75;100.00;101723.22;4939637;29;20028;-95
2023/10/09 00:26:45;;;;;;;38.45;19.15;;;;;;;14.66;100.00;101734.00;4948486;29;20035;-95
2023/10/09 00:29:28;;;;;;;41.08;18.98;;;;;;;14.77;100.00;101729.47;4939841;29;20032;-96
2023/10/09 00:34:42;;;;;;;38.97;18.63;;;;;;;14.76;100.00;101713.91;4910200;29;20050;-96
2023/10/09 00:37:25;;;;;;;45.15;19.95;;;;;;;14.78;100.00;101714.69;4940560;29;20066;-96
2023/10/09 00:39:57;;;;;;;42.78;19.90;;;;;;;14.93;100.00;101718.03;4938513;29;20090;-96
2023/10/09 00:42:29;;;;;;;36.17;19.00;;;;;;;14.82;100.00;101707.88;4939447;29;20055;-96
2023/10/09 00:44:56;;;;;;;46.63;20.23;;;;;;;14.95;100.00;101705.84;4923752;29;20043;-96
2023/10/09 00:47:22;;;;;;;40.33;19.38;;;;;;;14.92;100.00;101706.13;4918839;29;20201;-96
2023/10/09 00:49:51;;;;;;;41.92;19.38;;;;;;;15.00;100.00;101708.22;4927259;29;20127;-95
2023/10/09 00:52:23;;;;;;;39.70;19.80;;;;;;;15.03;100.00;101700.56;4940016;29;20061;-96
2023/10/09 00:54:51;;;;;;;38.08;19.30;;;;;;;14.97;100.00;101698.34;4926953;29;20058;-95
2023/10/09 00:57:24;;;;;;;44.05;18.77;;;;;;;15.00;100.00;101699.97;4920276;29;20039;-94
2023/10/09 00:59:59;;;;;;;40.75;19.23;;;;;;;14.95;100.00;101689.31;4920266;29;20088;-95
2023/10/09 01:02:35;;;;;;;39.50;17.63;;;;;;;15.07;100.00;101691.03;4931462;29;20040;-95
2023/10/09 01:05:11;;;;;;;47.42;19.63;;;;;;;15.14;100.00;101690.53;4938593;29;20049;-95
2023/10/09 01:07:40;;;;;;;37.58;18.95;;;;;;;15.19;100.00;101693.75;4920552;29;20044;-95
2023/10/09 01:10:11;;;;;;;34.47;18.13;;;;;;;15.20;100.00;101688.13;4921358;29;20490;-95
2023/10/09 01:12:43;;;;;;;39.25;17.42;;;;;;;15.31;100.00;101705.63;4930349;29;20043;-94
2023/10/09 01:15:17;;;;;;;42.40;18.98;;;;;;;15.46;100.00;101703.44;4935982;29;20482;-96
2023/10/09 01:17:45;;;;;;;36.05;17.10;;;;;;;15.32;100.00;101702.75;4928187;29;20118;-95
2023/10/09 01:20:22;;;;;;;32.15;17.73;;;;;;;15.37;100.00;101703.22;4933890;29;20024;-95
2023/10/09 01:22:50;;;;;;;34.85;18.02;;;;;;;15.34;100.00;101699.84;4941468;29;20047;-95
2023/10/09 01:25:16;;;;;;;40.78;18.75;;;;;;;15.33;100.00;101703.59;4925448;29;20091;-96
2023/10/09 01:27:43;;;;;;;51.53;18.60;;;;;;;15.44;100.00;101703.56;4923316;29;20155;-96
2023/10/09 01:30:13;;;;;;;41.33;18.17;;;;;;;15.51;100.00;101701.13;4927307;29;20157;-96
2023/10/09 01:32:44;;;;;;;;;;;;;;;15.57;100.00;101706.13;4939984;29;20034;-96
2023/10/09 01:35:21;;;;;;;33.95;16.98;;;;;;;15.48;100.00;101699.53;4928641;29;19918;-96
2023/10/09 01:37:50;;;;;;;35.47;16.77;;;;;;;15.50;100.00;101697.50;4938779;29;20541;-96
2023/10/09 01:40:27;;;;;;;34.85;17.38;;;;;;;15.47;100.00;101694.16;4920254;29;20496;-96
2023/10/09 01:42:52;;;;;;;33.13;16.75;;;;;;;15.46;100.00;101692.38;4935087;29;20039;-96
2023/10/09 01:47:57;;;;;;;30.02;16.30;;;;;;;15.53;100.00;101701.91;4937727;29;20028;-96
2023/10/09 01:50:30;;;;;;;35.40;16.85;;;;;;;15.52;100.00;101698.25;4924087;29;20043;-95
2023/10/09 01:52:56;;;;;;;40.25;16.13;;;;;;;15.56;100.00;101705.28;4948743;29;20058;-96
2023/10/09 01:55:39;;;;;;;32.15;15.50;;;;;;;15.57;100.00;101701.47;4938485;29;20068;-96
2023/10/09 01:58:16;;;;;;;;;;;;;;;15.67;100.00;101696.03;4914655;29;20497;-94
2023/10/09 02:00:49;;;;;;;28.83;15.00;;;;;;;15.75;100.00;101692.63;4970918;28;19923;-96
2023/10/09 02:03:15;;;;;;;35.70;15.75;;;;;;;15.69;100.00;101690.38;4932776;29;20036;-96
2023/10/09 02:05:43;;;;;;;33.72;16.00;;;;;;;15.85;100.00;101693.56;4941409;29;20023;-95
2023/10/09 02:08:10;;;;;;;36.10;16.60;;;;;;;15.96;100.00;101696.28;4968121;28;20042;-95
2023/10/09 02:10:37;;;;;;;33.17;15.18;;;;;;;15.95;100.00;101700.06;4950199;29;20038;-96
2023/10/09 02:13:09;;;;;;;33.47;16.33;;;;;;;15.64;100.00;101690.78;4935976;28;20043;-96
2023/10/09 02:26:40;;;;;;;29.63;14.57;;;;;;;15.98;100.00;101679.56;4936211;29;20043;-96
2023/10/09 02:29:18;;;;;;;33.17;14.70;;;;;;;15.98;100.00;101687.84;4943047;29;20044;-96
2023/10/09 02:31:51;;;;;;;27.98;14.82;;;;;;;15.87;100.00;101679.63;4954287;29;20122;-95
2023/10/09 02:34:24;;;;;;;27.55;14.98;;;;;;;15.99;100.00;101684.94;4940759;29;20083;-96
2023/10/09 02:36:57;;;;;;;32.80;14.65;;;;;;;15.85;100.00;101674.25;4941716;29;20032;-96
2023/10/09 02:39:27;;;;;;;27.08;14.75;;;;;;;15.92;100.00;101680.09;4923408;29;20039;-96
2023/10/09 02:41:58;;;;;;;30.10;13.73;;;;;;;15.98;100.00;101674.03;4934681;29;20032;-95
2023/10/09 02:44:31;;;;;;;28.10;14.15;;;;;;;15.95;100.00;101674.31;4954431;29;20055;-96
2023/10/09 02:46:59;;;;;;;29.00;14.57;;;;;;;15.88;100.00;101676.75;4948612;29;20550;-96
2023/10/09 02:49:26;;;;;;;29.17;14.98;;;;;;;15.84;100.00;101664.22;4933539;29;20139;-95
2023/10/09 02:51:54;;;;;;;32.67;14.90;;;;;;;15.90;100.00;101660.91;4942214;28;20050;-96
2023/10/09 02:54:35;;;;;;;30.27;14.02;;;;;;;15.83;100.00;101659.72;4908900;29;20115;-94
2023/10/09 02:57:07;;;;;;;23.63;14.15;;;;;;;15.91;100.00;101654.38;4923286;29;20047;-95
2023/10/09 02:59:41;;;;;;;33.53;14.38;;;;;;;15.92;100.00;101639.56;4944272;29;20031;-95
2023/10/09 03:02:10;;;;;;;29.55;14.80;;;;;;;15.86;100.00;101640.09;4944823;29;20032;-96
2023/10/09 03:04:38;;;;;;;30.23;14.38;;;;;;;16.01;100.00;101640.63;4933951;29;20115;-95
2023/10/09 03:07:05;;;;;;;29.13;14.15;;;;;;;16.03;100.00;101634.97;4932375;29;20107;-96
2023/10/09 03:09:32;;;;;;;26.25;14.30;;;;;;;15.98;100.00;101632.59;4948724;29;20080;-96
2023/10/09 03:12:02;;;;;;;28.02;14.30;;;;;;;15.99;100.00;101649.03;4942839;29;20032;-96
2023/10/09 03:14:35;;;;;;;28.48;13.98;;;;;;;15.93;100.00;101638.53;4958080;29;20062;-96
2023/10/09 03:17:02;;;;;;;30.70;14.15;;;;;;;15.98;100.00;101632.59;4950152;29;20486;-96
2023/10/09 03:19:29;;;;;;;28.38;14.05;;;;;;;16.09;100.00;101646.31;4920099;29;20395;-96
2023/10/09 03:21:58;;;;;;;28.95;13.68;;;;;;;16.19;100.00;101651.03;4947573;29;20051;-96
2023/10/09 03:24:27;;;;;;;30.02;14.68;;;;;;;16.03;100.00;101657.06;4913160;29;20033;-96
2023/10/09 03:26:55;;;;;;;27.73;13.77;;;;;;;15.86;100.00;101653.91;4939442;29;20035;-96
2023/10/09 03:29:23;;;;;;;30.27;13.30;;;;;;;15.78;100.00;101653.72;4937646;29;20032;-96
2023/10/09 03:31:51;;;;;;;29.77;14.63;;;;;;;15.80;100.00;101652.56;4929780;29;20031;-96
2023/10/09 03:34:23;;;;;;;27.52;14.40;;;;;;;15.91;100.00;101643.31;4947804;29;20032;-96
2023/10/09 03:37:03;;;;;;;26.92;14.38;;;;;;;15.84;100.00;101638.47;4947057;29;20039;-96
2023/10/09 03:39:47;;;;;;;30.83;14.77;;;;;;;15.98;100.00;101635.38;4928995;29;20095;-96
2023/10/09 03:42:19;;;;;;;30.70;14.82;;;;;;;15.91;100.00;101628.66;4963228;29;20035;-96
2023/10/09 03:44:49;;;;;;;28.65;13.45;;;;;;;15.97;100.00;101628.97;4949102;29;20508;-96
2023/10/09 03:47:22;;;;;;;31.02;14.20;;;;;;;15.87;100.00;101619.78;4943530;29;20056;-96
2023/10/09 03:49:53;;;;;;;33.22;14.32;;;;;;;15.58;100.00;101634.22;4927204;29;20110;-96
2023/10/09 03:52:19;;;;;;;35.80;15.57;;;;;;;15.71;100.00;101630.38;4939916;29;20035;-96
2023/10/09 03:54:46;;;;;;;29.20;13.98;;;;;;;15.82;100.00;101622.03;4954529;29;20075;-96
2023/10/09 03:57:19;;;;;;;30.75;14.55;;;;;;;15.71;100.00;101613.81;4923407;29;20413;-96
2023/10/09 03:59:51;;;;;;;35.08;14.15;;;;;;;15.76;100.00;101606.91;4918928;29;20036;-96
2023/10/09 04:02:17;;;;;;;29.73;15.15;;;;;;;15.83;100.00;101612.75;4929566;29;20144;-96
2023/10/09 04:04:47;;;;;;;32.03;14.60;;;;;;;15.78;100.00;101613.16;4897107;29;20507;-94
2023/10/09 04:07:16;;;;;;;29.88;13.75;;;;;;;15.83;100.00;101604.47;4914708;29;20031;-91
2023/10/09 04:09:47;;;;;;;28.10;14.85;;;;;;;15.78;100.00;101609.53;4919861;29;20032;-93
2023/10/09 04:12:20;;;;;;;33.58;15.05;;;;;;;16.05;100.00;101608.06;4938941;29;20043;-92
2023/10/09 04:14:57;;;;;;;27.63;14.23;;;;;;;16.02;100.00;101606.47;4910487;29;20027;-92
2023/10/09 04:20:47;;;;;;;28.65;14.50;;;;;;;16.04;100.00;101609.97;4944765;29;20043;-95
2023/10/09 04:22:50;;;;;;;29.73;14.70;;;;;;;16.13;100.00;101614.66;4931641;29;20122;-92
2023/10/09 04:25:25;;;;;;;27.77;14.15;;;;;;;16.11;100.00;101615.81;4924153;29;20062;-94
2023/10/09 04:27:59;;;;;;;32.45;14.57;;;;;;;16.05;100.00;101621.88;4908715;29;20397;-91
2023/10/09 04:30:26;;;;;;;31.17;15.25;;;;;;;16.00;100.00;101611.22;4917827;29;20056;-93
2023/10/09 04:32:55;;;;;;;31.92;15.70;;;;;;;15.89;100.00;101609.44;4911691;29;20143;-94
2023/10/09 04:35:24;;;;;;;30.55;15.70;;;;;;;15.89;100.00;101598.41;4944076;29;20028;-91
2023/10/09 04:37:59;;;;;;;37.50;16.15;;;;;;;15.89;100.00;101594.75;4921897;29;20502;-81
2023/10/09 04:43:20;;;;;;;37.38;15.20;;;;;;;15.78;100.00;101579.16;4918457;29;20050;-81
2023/10/09 04:46:07;;;;;;;33.28;15.40;;;;;;;15.75;100.00;101579.41;4933316;29;20031;-81
2023/10/09 04:48:33;;;;;;;31.80;16.20;;;;;;;15.93;100.00;101574.13;4914207;29;20071;-81
2023/10/09 04:51:36;;;;;;;31.02;15.23;;;;;;;15.96;100.00;101584.91;4920660;29;20070;-82
2023/10/09 04:54:14;;;;;;;30.80;15.20;;;;;;;16.02;100.00;101612.00;4919392;29;20047;-80
2023/10/09 04:56:51;;;;;;;29.75;15.15;;;;;;;16.08;100.00;101616.06;4930031;29;20047;-80
2023/10/09 04:59:24;;;;;;;29.67;15.30;;;;;;;15.99;100.00;101626.06;4934900;29;20039;-80
2023/10/09 05:01:57;;;;;;;35.40;15.90;;;;;;;15.84;100.00;101627.44;4927943;29;20043;-80
2023/10/09 05:04:39;;;;;;;29.60;15.38;;;;;;;15.85;100.00;101626.44;4918755;29;20119;-80
2023/10/09 05:07:24;;;;;;;38.03;16.38;;;;;;;15.82;100.00;101649.66;4919169;29;20521;-80
2023/10/09 05:10:14;;;;;;;34.08;16.20;;;;;;;15.95;100.00;101650.34;4933773;29;20024;-81
2023/10/09 05:12:46;;;;;;;34.03;16.52;;;;;;;15.96;100.00;101656.72;4921120;29;20094;-80
2023/10/09 05:15:13;;;;;;;31.92;16.20;;;;;;;15.84;100.00;101652.28;4918119;29;20140;-80
2023/10/09 05:17:39;;;;;;;31.27;15.70;;;;;;;15.95;100.00;101628.25;4917220;29;20062;-80
2023/10/09 05:23:14;;;;;;;36.58;16.85;;;;;;;16.13;100.00;101644.16;4937408;29;20051;-80
2023/10/09 05:25:58;;;;;;;33.03;15.27;;;;;;;16.08;100.00;101649.22;4925639;29;20031;-80
2023/10/09 05:28:48;;;;;;;41.35;17.25;;;;;;;15.79;100.00;101644.44;4911093;29;20581;-80
2023/10/09 05:31:40;;;;;;;35.15;16.10;;;;;;;15.76;100.00;101634.53;4929981;29;20168;-80
2023/10/09 05:34:01;;;;;;;40.63;17.75;;;;;;;15.67;100.00;101628.91;4935415;29;20056;-80
2023/10/09 05:38:58;;;;;;;38.67;16.70;;;;;;;15.66;100.00;101632.66;4933253;29;20066;-80
2023/10/09 05:47:33;;;;;;;40.97;17.92;;;;;;;15.66;100.00;101650.13;4890971;29;20430;-79
2023/10/09 05:53:06;;;;;;;35.00;18.08;;;;;;;15.99;100.00;101684.94;4935009;29;20036;-79
2023/10/09 06:06:18;;;;;;;33.08;17.05;;;;;;;15.88;100.00;101664.81;4934512;29;20043;-80
2023/10/09 06:14:04;;;;;;;42.17;18.00;;;;;;;15.77;100.00;101674.94;4933056;29;20066;-79
2023/10/09 06:19:08;;;;;;;34.60;18.60;;;;;;;15.84;100.00;101688.19;4931990;29;20050;-79
2023/10/09 06:22:19;;;;;;;41.83;19.58;;;;;;;15.85;100.00;101707.38;4917252;29;20051;-80
2023/10/09 06:24:33;;;;;;;57.10;18.98;;;;;;;15.89;100.00;101706.13;4934493;29;20032;-79
2023/10/09 06:29:35;;;;;;;43.38;17.92;;;;;;;15.89;100.00;101700.59;4933578;29;20099;-79
2023/10/09 06:34:56;;;;;;;37.53;17.98;;;;;;;15.98;100.00;101702.53;4934488;29;20569;-79
2023/10/09 06:42:51;;;;;;;38.63;18.20;;;;;;;15.91;100.00;101679.22;4917843;29;20038;-79
2023/10/09 06:45:16;;;;;;;44.28;20.33;;;;;;;15.92;100.00;101686.53;4930972;29;20043;-79
2023/10/09 06:47:53;;;;;;;40.53;20.83;;;;;;;15.90;100.00;101688.53;4932858;29;20492;-79
2023/10/09 06:52:57;;;;;;;36.45;18.15;;;;;;;15.96;100.00;101687.13;4933320;29;20039;-80
2023/10/09 06:55:37;;;;;;;39.80;18.83;;;;;;;16.11;100.00;101698.69;4934086;29;20074;-80
2023/10/09 06:58:09;;;;;;;48.92;19.40;;;;;;;16.20;100.00;101702.50;4934532;29;20036;-95
2023/10/09 07:03:29;;;;;;;36.50;18.77;;;;;;;16.20;100.00;101708.94;4931086;29;20118;-94
2023/10/09 07:06:56;;;;;;;36.65;18.35;;;;;;;16.15;100.00;101680.81;4925357;29;20040;-94
2023/10/09 07:12:20;;;;;;;37.53;19.15;;;;;;;16.01;100.00;101671.00;4940732;29;20099;-94
2023/10/09 07:17:00;;;;;;;38.75;19.33;;;;;;;16.23;100.00;101683.75;4936369;29;20054;-94
2023/10/09 07:22:04;;;;;;;41.53;19.88;;;;;;;16.16;100.00;101690.84;4934249;29;20087;-92
2023/10/09 07:27:43;;;;;;;43.88;19.73;;;;;;;16.28;100.00;101664.91;4947318;29;20043;-94
2023/10/09 07:38:20;;;;;;;35.58;18.70;;;;;;;16.46;100.00;101653.16;4949077;29;20098;-96
2023/10/09 07:43:39;;;;;;;44.55;18.70;;;;;;;16.68;100.00;101690.78;4944373;29;20055;-93
2023/10/09 07:46:51;;;;;;;47.63;20.13;;;;;;;16.69;100.00;101704.47;4913889;29;20055;-96
2023/10/09 07:49:24;;;;;;;32.88;17.88;;;;;;;16.65;100.00;101707.66;4944165;29;20012;-92
2023/10/09 07:51:52;;;;;;;42.90;18.98;;;;;;;16.67;100.00;101722.22;4927527;29;20015;-96
2023/10/09 07:54:31;;;;;;;36.53;18.67;;;;;;;16.64;100.00;101726.16;4927146;29;20055;-90
2023/10/09 07:57:08;;;;;;;41.22;18.80;;;;;;;16.40;100.00;101722.81;4944891;29;20031;-96
2023/10/09 07:59:41;;;;;;;37.80;19.27;;;;;;;16.35;100.00;101715.81;4928938;29;20115;-92
2023/10/09 08:02:13;;;;;;;43.08;19.08;;;;;;;16.51;100.00;101711.66;4935114;29;20038;-90
2023/10/09 08:04:48;;;;;;;42.80;19.10;;;;;;;16.69;100.00;101734.00;4933494;29;20183;-94
2023/10/09 08:07:19;;;;;;;45.78;19.02;;;;;;;16.72;100.00;101723.56;4913284;29;20068;-91
2023/10/09 08:09:48;;;;;;;34.22;18.65;;;;;;;16.61;100.00;101715.38;4947416;29;20197;-89
2023/10/09 08:15:20;;;;;;;37.88;18.42;;;;;;;16.50;100.00;101683.16;4920305;29;20051;-88
2023/10/09 08:18:03;;;;;;;42.92;19.40;;;;;;;16.44;100.00;101672.66;4908288;29;20040;-90
2023/10/09 08:20:36;;;;;;;46.13;18.70;;;;;;;16.28;100.00;101691.63;4923357;29;20107;-91
2023/10/09 08:23:04;;;;;;;36.78;18.42;;;;;;;16.45;100.00;101696.53;4922552;29;20027;-89
2023/10/09 08:25:50;;;;;;;44.10;20.38;;;;;;;16.53;100.00;101702.22;4906625;29;20042;-89
2023/10/09 08:31:03;;;;;;;35.30;19.10;;;;;;;16.61;100.00;101729.19;4928710;29;20055;-89
2023/10/09 08:33:42;;;;;;;43.35;19.52;;;;;;;16.54;100.00;101733.50;4907490;29;20027;-93
2023/10/09 08:36:14;;;;;;;36.80;19.30;;;;;;;16.44;100.00;101693.91;4927676;29;20039;-94
2023/10/09 08:38:41;;;;;;;44.67;20.95;;;;;;;16.54;100.00;101694.78;4909508;29;20035;-94
2023/10/09 08:41:17;;;;;;;41.47;20.95;;;;;;;16.68;100.00;101674.19;4909591;29;20054;-95
2023/10/09 08:43:51;;;;;;;34.85;18.80;;;;;;;16.66;100.00;101673.44;4918721;29;20035;-94
2023/10/09 08:46:27;;;;;;;45.65;20.15;;;;;;;16.73;100.00;101672.75;4921811;29;20055;-94
2023/10/09 08:49:04;;;;;;;46.55;20.58;;;;;;;16.80;100.00;101675.81;4937502;29;20047;-94
2023/10/09 08:51:35;;;;;;;35.92;19.23;;;;;;;16.78;100.00;101658.50;4937994;29;20035;-96
2023/10/09 08:54:01;;;;;;;40.03;18.73;;;;;;;16.81;100.00;101649.03;4913360;29;20032;-87
2023/10/09 08:56:27;;;;;;;39.58;19.92;;;;;;;16.92;100.00;101661.88;4951374;29;20055;-94
2023/10/09 08:58:56;;;;;;;42.97;20.20;;;;;;;16.95;100.00;101656.06;4925386;29;20043;-96
2023/10/09 09:01:24;;;;;;;37.17;18.65;;;;;;;17.03;100.00;101650.69;4944316;29;20031;-94
2023/10/09 09:03:55;;;;;;;43.75;20.13;;;;;;;17.01;100.00;101650.84;4944170;28;20398;-93
2023/10/09 09:06:23;;;;;;;46.80;20.50;;;;;;;17.10;100.00;101665.69;4924370;29;20035;-92
2023/10/09 09:08:54;;;;;;;38.92;19.70;;;;;;;17.12;100.00;101655.38;4939324;29;20039;-92
2023/10/09 09:11:24;;;;;;;43.08;20.70;;;;;;;17.24;100.00;101670.81;4926381;29;20051;-93
2023/10/09 09:14:02;;;;;;;39.25;19.70;;;;;;;17.43;100.00;101691.19;4943226;29;20040;-92
2023/10/09 09:16:32;;;;;;;43.20;20.02;;;;;;;17.63;100.00;101689.31;4957538;29;20100;-91
2023/10/09 09:21:54;;;;;;;41.55;17.02;;;;;;;18.52;100.00;101708.34;4960241;28;20130;-95
2023/10/09 09:26:47;;;;;;;58.03;18.38;;;;;;;18.57;100.00;101707.91;4975577;28;20039;-90
2023/10/09 09:29:19;;;;;;;48.63;18.02;;;;;;;18.46;100.00;101708.09;4960087;28;20062;-94
2023/10/09 09:32:15;;;;;;;34.30;17.90;;;;;;;18.72;100.00;101711.91;4978269;28;20187;-92
2023/10/09 09:34:49;;;;;;;34.13;18.23;;;;;;;18.54;100.00;101705.41;4944185;29;20047;-94
2023/10/09 09:37:30;;;;;;;33.05;16.92;;;;;;;18.64;100.00;101705.38;4945760;29;20023;-93
2023/10/09 09:40:00;;;;;;;38.03;17.52;;;;;;;18.60;100.00;101707.59;4941844;29;20032;-95
2023/10/09 09:42:27;;;;;;;34.55;17.13;;;;;;;18.57;100.00;101716.22;4944751;29;20031;-94
2023/10/09 09:44:53;;;;;;;37.15;17.52;;;;;;;18.58;100.00;101714.31;4930615;29;20095;-94
2023/10/09 09:47:26;;;;;;;30.20;16.35;;;;;;;18.53;100.00;101718.44;4937128;29;20028;-92
2023/10/09 09:49:59;;;;;;;33.90;17.08;;;;;;;18.29;100.00;101723.63;4945622;29;20016;-96
2023/10/09 09:52:25;;;;;;;;;;;;;;;18.83;100.00;101729.38;4948770;29;20517;-93
2023/10/09 09:54:55;;;;;;;32.78;16.42;;;;;;;18.60;100.00;101729.78;4969520;28;20386;-88
2023/10/09 09:57:28;;;;;;;36.45;16.65;;;;;;;18.82;100.00;101730.41;4936741;29;20095;-93
2023/10/09 09:59:56;;;;;;;;;;;;;;;18.68;100.00;101726.25;4922823;29;20028;-90
2023/10/09 10:02:29;;;;;;;39.35;16.80;;;;;;;18.58;100.00;101725.41;4940837;29;19942;-88
2023/10/09 10:04:59;;;;;;;36.75;16.27;;;;;;;18.68;100.00;101734.56;4917706;29;20031;-87
2023/10/09 10:07:30;;;;;;;36.50;17.42;;;;;;;18.76;100.00;101731.00;4924256;29;20032;-89
2023/10/09 10:09:57;;;;;;;36.90;17.90;;;;;;;18.67;100.00;101735.59;4921311;29;20031;-89
2023/10/09 10:13:01;;;;;;;37.08;17.73;;;;;;;18.83;100.00;101744.16;4905322;29;20111;-89
2023/10/09 10:21:54;;;;;;;38.42;18.13;;;;;;;18.98;100.00;101746.44;4923535;29;20589;-91
2023/10/09 10:24:28;;;;;;;40.00;17.90;;;;;;;19.06;100.00;101740.97;4933424;29;20086;-92
2023/10/09 10:27:44;;;;;;;38.85;17.63;;;;;;;18.91;100.00;101741.47;4941783;29;20032;-91
2023/10/09 10:30:14;;;;;;;37.42;18.13;;;;;;;19.26;100.00;101739.78;4908729;29;20028;-90
2023/10/09 10:33:09;;;;;;;37.40;18.90;;;;;;;19.29;100.00;101733.94;4936716;29;20043;-92
2023/10/09 10:43:46;;;;;;;45.58;19.40;;;;;;;18.96;100.00;101734.63;5914473;23;20034;-94
2023/10/09 10:46:24;;;;;;;41.35;19.23;;;;;;;19.20;100.00;101739.56;4897693;29;20076;-91
2023/10/09 10:49:36;;;;;;;44.45;19.65;;;;;;;19.27;100.00;101733.22;4898324;29;20031;-92
2023/10/09 10:52:02;;;;;;;42.50;18.92;;;;;;;19.21;100.00;101739.41;4887669;29;20095;-93
2023/10/09 10:54:45;;;;;;;44.17;18.67;;;;;;;19.65;100.00;101730.28;4903209;29;20039;-94
2023/10/09 10:58:10;;;;;;;42.15;20.33;;;;;;;19.50;100.00;101732.78;4866513;29;20051;-93
2023/10/09 11:02:55;;;;;;;35.33;19.13;;;;;;;19.57;100.00;101725.53;4923045;29;19980;-93
2023/10/09 11:05:26;;;;;;;39.88;18.75;;;;;;;19.78;100.00;101728.00;4917793;29;20486;-92
2023/10/09 11:07:57;;;;;;;40.55;19.67;;;;;;;19.77;100.00;101722.63;4891657;29;20041;-91
2023/10/09 11:10:31;;;;;;;43.03;21.13;;;;;;;19.71;100.00;101723.22;4885865;29;20044;-93
2023/10/09 11:15:46;;;;;;;38.65;20.33;;;;;;;20.00;100.00;101729.41;4881310;29;20044;-94
2023/10/09 11:18:26;;;;;;;39.33;18.70;;;;;;;19.89;100.00;101717.66;4918758;29;20118;-95
2023/10/09 11:29:23;;;;;;;44.92;21.85;;;;;;;19.90;100.00;101725.84;4906773;29;20043;-91
2023/10/09 11:32:05;;;;;;;46.85;21.83;;;;;;;20.17;100.00;101721.19;4915460;29;20044;-91
2023/10/09 11:34:37;;;;;;;39.33;21.07;;;;;;;20.20;100.00;101723.63;4905882;29;20032;-93
2023/10/09 11:37:15;;;;;;;45.67;21.73;;;;;;;20.20;100.00;101718.06;4920444;29;20047;-92
2023/10/09 11:39:53;;;;;;;43.50;20.73;;;;;;;20.16;100.00;101711.97;4916331;29;20047;-93
2023/10/09 11:42:48;;;;;;;49.60;21.80;;;;;;;19.92;100.00;101709.91;4905758;29;20024;-92
2023/10/09 11:45:23;;;;;;;40.53;20.83;;;;;;;20.09;100.00;101722.00;4914160;29;20056;-94
2023/10/09 11:47:59;;;;;;;35.72;20.23;;;;;;;19.97;100.00;101707.50;4922531;29;20027;-95
2023/10/09 11:55:52;;;;;;;35.58;20.15;;;;;;;20.37;100.00;101717.13;4920556;29;20063;-89
2023/10/09 11:58:24;;;;;;;43.73;20.60;;;;;;;20.35;100.00;101716.44;4916490;29;20116;-91
2023/10/09 12:00:51;;;;;;;39.72;21.00;;;;;;;20.38;100.00;101707.75;4918600;29;20051;-90
2023/10/09 12:03:23;;;;;;;43.75;21.85;;;;;;;20.23;100.00;101717.75;4937445;29;20039;-90
2023/10/09 12:05:49;;;;;;;40.10;21.42;;;;;;;20.11;100.00;101713.50;4899764;29;20029;-89
2023/10/09 12:08:16;;;;;;;46.70;22.33;;;;;;;20.27;100.00;101709.97;4913458;29;20382;-91
2023/10/09 12:10:42;;;;;;;46.28;22.95;;;;;;;20.15;100.00;101717.69;4902587;29;20040;-90
2023/10/09 12:13:07;;;;;;;52.10;22.15;;;;;;;20.32;100.00;101721.47;4905682;29;20156;-91
2023/10/09 12:15:39;;;;;;;40.50;21.33;;;;;;;20.23;100.00;101719.66;4915223;29;20484;-90
2023/10/09 12:18:09;;;;;;;48.50;22.10;;;;;;;20.22;100.00;101716.00;4935051;29;20036;-89
2023/10/09 12:20:36;;;;;;;39.60;20.30;;;;;;;20.10;100.00;101714.53;4901958;29;20328;-89
2023/10/09 12:23:04;;;;;;;47.35;23.00;;;;;;;20.09;100.00;101718.34;4904721;29;20040;-94
2023/10/09 12:25:31;;;;;;;49.55;23.73;;;;;;;20.14;100.00;101722.38;4910337;29;20100;-90
2023/10/09 12:28:02;;;;;;;43.85;22.08;;;;;;;20.36;100.00;101720.94;4924002;29;20056;-91
2023/10/09 12:30:37;;;;;;;49.80;22.15;;;;;;;20.23;100.00;101719.66;4905949;29;20134;-91
2023/10/09 12:33:07;;;;;;;52.20;24.73;;;;;;;20.13;100.00;101716.97;4918468;29;20037;-92
2023/10/09 12:35:38;;;;;;;44.95;22.08;;;;;;;20.05;100.00;101716.94;4915186;29;20520;-91
2023/10/09 12:38:12;;;;;;;58.25;24.02;;;;;;;20.02;100.00;101718.09;4906128;29;20498;-92
2023/10/09 12:40:41;;;;;;;44.90;22.25;;;;;;;20.16;100.00;101711.09;4904675;29;20472;-92
2023/10/09 12:43:15;;;;;;;46.67;22.15;;;;;;;20.07;100.00;101710.19;4905299;29;20072;-93
2023/10/09 12:45:41;;;;;;;50.20;23.17;;;;;;;20.12;100.00;101716.13;4926001;29;20039;-90
2023/10/09 12:48:09;;;;;;;50.05;23.00;;;;;;;20.19;100.00;101708.00;4900788;29;20103;-79
2023/10/09 12:50:41;;;;;;;50.05;22.45;;;;;;;20.28;100.00;101704.22;4910385;29;20036;-79
2023/10/09 12:53:07;;;;;;;44.00;21.98;;;;;;;20.19;100.00;101691.31;4910231;29;20035;-79
2023/10/09 12:55:41;;;;;;;49.17;21.90;;;;;;;20.10;100.00;101695.06;4915755;29;20040;-79
2023/10/09 12:58:15;;;;;;;40.60;19.90;;;;;;;20.24;100.00;101702.81;4914096;29;20067;-79
2023/10/09 13:00:48;;;;;;;42.55;21.60;;;;;;;20.33;100.00;101695.38;4907980;29;20392;-79
2023/10/09 13:03:16;;;;;;;38.97;20.08;;;;;;;20.35;100.00;101691.41;4911275;29;20047;-79
2023/10/09 13:05:54;;;;;;;40.42;18.92;;;;;;;20.30;100.00;101684.56;4911195;29;20068;-79
2023/10/09 13:08:24;;;;;;;36.83;18.33;;;;;;;20.35;100.00;101683.06;4912216;29;20028;-79
2023/10/09 13:10:58;;;;;;;37.95;17.75;;;;;;;20.44;100.00;101683.97;4912580;29;20130;-78
2023/10/09 13:13:39;;;;;;;39.40;18.02;;;;;;;20.53;100.00;101676.56;4914949;29;20130;-79
2023/10/09 13:16:11;;;;;;;38.60;17.10;;;;;;;20.82;100.00;101673.38;4931085;29;20040;-79
2023/10/09 13:18:41;;;;;;;37.92;16.92;;;;;;;20.87;100.00;101673.75;4916125;29;20064;-79
2023/10/09 13:21:07;;;;;;;34.70;14.68;;;;;;;20.76;100.00;101674.06;4903807;29;20450;-79
2023/10/09 13:23:39;;;;;;;31.17;15.25;;;;;;;20.92;100.00;101670.44;4925167;29;20037;-77
2023/10/09 13:26:29;;;;;;;39.15;14.70;;;;;;;20.78;100.00;101659.97;4912786;29;20039;-78
2023/10/09 13:28:56;;;;;;;36.13;14.85;;;;;;;20.89;100.00;101668.88;4914852;29;20043;-78
2023/10/09 13:31:26;;;;;;;35.92;14.55;;;;;;;21.01;100.00;101677.78;4910136;29;20312;-78
2023/10/09 13:33:54;;;;;;;31.15;14.18;;;;;;;20.93;100.00;101661.06;4912150;29;20035;-78
2023/10/09 13:36:31;;;;;;;32.55;13.93;;;;;;;20.71;100.00;101663.44;4899187;29;20028;-79
2023/10/09 13:41:46;;;;;;;27.77;13.18;;;;;;;20.57;100.00;101669.59;4913644;29;20111;-79
2023/10/09 13:44:13;;;;;;;39.30;14.18;;;;;;;20.57;100.00;101686.28;4899114;29;20408;-79
2023/10/09 13:46:41;;;;;;;30.13;13.27;;;;;;;20.43;100.00;101693.38;4912634;29;20036;-78
2023/10/09 13:49:12;;;;;;;28.15;13.15;;;;;;;20.31;100.00;101689.97;4909223;29;20028;-78
2023/10/09 13:51:43;;;;;;;31.73;13.15;;;;;;;20.37;100.00;101688.47;4903838;29;20542;-78